Time;durP1;ratioP1;P1;durP2;ratioP2;P2;SDS_P1;SDS_P2;PMS_P1;PMS_P2;Temp;Humidity;BMP_temperature;BMP_pressure;BME280_temperature;BME280_humidity;BME280_pressure;Samples;Min_cycle;Max_cycle;Signal;HPM_P1;HPM_P2
2022/12/23 00:00:07;;;;;;;314.08;48.60;;;6.80;99.90;;;;;;5020643;28;20037;-81
2022/12/23 00:02:32;;;;;;;196.25;45.90;;;7.10;99.90;;;;;;5038639;28;20450;-81
2022/12/23 00:04:58;;;;;;;245.73;47.63;;;7.20;99.90;;;;;;5039104;28;20140;-82
2022/12/23 00:07:23;;;;;;;165.35;46.55;;;6.80;99.90;;;;;;5040546;28;20118;-80
2022/12/23 00:09:49;;;;;;;179.88;45.47;;;6.90;99.90;;;;;;5043598;28;20040;-80
2022/12/23 00:15:05;;;;;;;196.65;49.30;;;6.90;99.90;;;;;;5048590;28;20048;-79
2022/12/23 00:17:31;;;;;;;180.98;47.35;;;6.80;99.90;;;;;;5041793;28;20033;-80
2022/12/23 00:19:57;;;;;;;181.38;48.13;;;6.90;99.90;;;;;;5037864;28;20063;-82
2022/12/23 00:23:03;;;;;;;193.70;49.20;;;6.60;99.90;;;;;;5028599;28;20370;-79
2022/12/23 00:25:09;;;;;;;217.43;47.72;;;6.60;99.90;;;;;;5046347;28;20064;-83
2022/12/23 00:27:35;;;;;;;163.75;47.80;;;6.70;99.90;;;;;;5039673;28;20124;-81
2022/12/23 00:30:00;;;;;;;219.73;48.35;;;7.00;99.90;;;;;;5036842;28;20117;-82
2022/12/23 00:32:26;;;;;;;184.23;48.28;;;6.70;99.90;;;;;;5044411;28;20049;-79
2022/12/23 00:34:51;;;;;;;195.88;47.67;;;6.90;99.90;;;;;;5016243;28;20029;-80
2022/12/23 00:37:17;;;;;;;200.65;50.13;;;7.00;99.90;;;;;;5055380;28;20539;-78
2022/12/23 00:45:17;;;;;;;181.05;46.65;;;6.70;99.90;;;;;;5039400;28;20046;-82
2022/12/23 00:50:30;;;;;;;154.65;46.85;;;6.70;99.90;;;;;;5041382;28;20052;-83
2022/12/23 00:52:56;;;;;;;208.15;47.05;;;6.80;99.90;;;;;;5034523;28;20499;-81
2022/12/23 00:55:23;;;;;;;217.35;49.42;;;7.00;99.90;;;;;;5018056;28;20144;-82
2022/12/23 00:57:48;;;;;;;220.75;47.92;;;6.60;99.90;;;;;;5050084;28;20041;-80
2022/12/23 01:00:14;;;;;;;175.25;45.65;;;6.70;99.90;;;;;;5031788;28;20374;-81
2022/12/23 01:05:37;;;;;;;280.90;51.08;;;6.70;99.90;;;;;;5038087;28;20100;-83
2022/12/23 01:08:07;;;;;;;182.02;45.58;;;7.00;99.90;;;;;;5035768;28;20033;-79
2022/12/23 01:10:37;;;;;;;190.82;46.13;;;6.90;99.90;;;;;;5069113;28;20053;-81
2022/12/23 01:13:04;;;;;;;227.30;49.97;;;7.00;99.90;;;;;;5051839;28;20476;-86
2022/12/23 01:15:30;;;;;;;239.55;50.67;;;7.00;99.90;;;;;;5034377;28;20041;-82
2022/12/23 01:17:56;;;;;;;196.98;48.88;;;6.90;99.90;;;;;;5081541;28;20101;-79
2022/12/23 01:20:22;;;;;;;188.35;49.85;;;6.80;99.90;;;;;;5065766;28;20399;-80
2022/12/23 01:22:47;;;;;;;204.68;49.92;;;6.60;99.90;;;;;;5030792;28;20072;-82
2022/12/23 01:29:15;;;;;;;201.23;48.03;;;6.70;99.90;;;;;;5065155;28;20048;-79
2022/12/23 01:31:41;;;;;;;220.68;48.05;;;6.60;99.90;;;;;;5018301;28;20485;-79
2022/12/23 01:34:07;;;;;;;188.20;49.47;;;6.60;99.90;;;;;;5036772;28;20071;-80
2022/12/23 01:36:32;;;;;;;172.07;48.28;;;6.80;99.90;;;;;;5049838;28;20040;-81
2022/12/23 01:38:58;;;;;;;184.27;49.30;;;6.90;99.90;;;;;;5049763;28;20468;-80
2022/12/23 01:44:45;;;;;;;228.20;51.92;;;7.00;99.90;;;;;;5042587;28;20041;-82
2022/12/23 01:47:22;;;;;;;272.58;52.33;;;6.60;99.90;;;;;;5034425;28;20105;-81
2022/12/23 01:49:50;;;;;;;228.73;50.40;;;6.70;99.90;;;;;;5043044;28;20037;-79
2022/12/23 01:52:16;;;;;;;230.00;51.60;;;6.70;99.90;;;;;;5040077;28;20041;-81
2022/12/23 01:54:43;;;;;;;257.05;51.92;;;6.60;99.90;;;;;;5041839;28;20056;-81
2022/12/23 01:57:09;;;;;;;182.50;48.53;;;7.00;99.90;;;;;;5017757;28;20120;-81
2022/12/23 02:05:05;;;;;;;246.38;53.15;;;6.50;99.90;;;;;;5086253;28;20049;-81
2022/12/23 02:10:16;;;;;;;206.65;48.55;;;6.60;99.90;;;;;;5042881;28;20045;-83
2022/12/23 02:13:11;;;;;;;155.68;45.60;;;6.60;99.90;;;;;;5067418;28;20063;-79
2022/12/23 02:18:56;;;;;;;177.77;44.45;;;6.70;99.90;;;;;;5057335;28;20097;-80
2022/12/23 02:21:40;;;;;;;155.27;43.42;;;6.90;99.90;;;;;;5047058;28;20074;-77
2022/12/23 02:24:09;;;;;;;149.77;49.00;;;6.60;99.90;;;;;;5037363;28;20083;-78
2022/12/23 02:26:53;;;;;;;184.43;61.05;;;6.90;99.90;;;;;;5035823;28;20046;-78
2022/12/23 02:30:03;;;;;;;173.02;58.03;;;6.70;99.90;;;;;;5048951;28;20092;-81
2022/12/23 02:32:49;;;;;;;152.02;46.60;;;7.00;99.90;;;;;;5032112;28;20052;-81
2022/12/23 02:35:40;;;;;;;156.48;45.72;;;7.10;99.90;;;;;;5032580;28;20041;-81
2022/12/23 02:38:22;;;;;;;146.35;42.92;;;6.80;99.90;;;;;;5016744;28;20115;-81
2022/12/23 02:41:28;;;;;;;149.73;44.70;;;6.80;99.90;;;;;;5021072;28;20069;-78
2022/12/23 02:44:17;;;;;;;143.77;43.05;;;7.10;99.90;;;;;;4989725;28;20050;-81
2022/12/23 02:46:53;;;;;;;131.05;42.05;;;6.90;99.90;;;;;;4956963;28;20404;-82
2022/12/23 02:49:32;;;;;;;149.75;45.15;;;7.00;99.90;;;;;;4973699;28;20356;-78
2022/12/23 02:52:03;;;;;;;127.93;39.90;;;6.90;99.90;;;;;;4972979;28;20051;-80
2022/12/23 02:55:11;;;;;;;135.77;41.33;;;6.70;99.90;;;;;;4972089;28;20049;-83
2022/12/23 02:57:41;;;;;;;126.25;40.15;;;6.70;99.90;;;;;;4947117;28;20115;-83
2022/12/23 03:00:08;;;;;;;139.40;41.40;;;7.00;99.90;;;;;;4936099;28;20065;-82
2022/12/23 03:02:38;;;;;;;123.75;39.80;;;6.70;99.90;;;;;;4948441;28;20628;-80
2022/12/23 03:05:05;;;;;;;128.88;40.92;;;7.10;99.90;;;;;;4943701;28;20082;-82
2022/12/23 03:07:40;;;;;;;166.32;42.85;;;7.10;99.90;;;;;;4941095;28;20550;-81
2022/12/23 03:10:47;;;;;;;130.57;39.63;;;7.10;99.90;;;;;;4935287;29;20058;-80
2022/12/23 03:13:18;;;;;;;144.70;42.00;;;7.10;99.90;;;;;;4879624;29;20468;-83
2022/12/23 03:15:58;;;;;;;144.48;42.35;;;7.10;99.90;;;;;;4900960;29;20054;-80
2022/12/23 03:18:47;;;;;;;140.82;40.58;;;6.80;99.90;;;;;;4908131;29;20047;-82
2022/12/23 03:21:32;;;;;;;147.23;40.95;;;7.10;99.90;;;;;;4887164;29;20140;-77
2022/12/23 03:24:06;;;;;;;157.63;42.92;;;6.90;99.90;;;;;;4919819;29;20056;-77
2022/12/23 03:26:45;;;;;;;148.60;41.10;;;6.70;99.90;;;;;;4909634;29;20058;-81
2022/12/23 03:29:38;;;;;;;146.35;38.72;;;6.70;99.90;;;;;;4961305;28;20049;-78
2022/12/23 03:32:05;;;;;;;160.82;40.25;;;7.00;99.90;;;;;;4967138;28;20102;-82
2022/12/23 03:34:37;;;;;;;136.18;39.05;;;7.10;99.90;;;;;;4955870;28;20058;-86
2022/12/23 03:37:07;;;;;;;129.00;37.70;;;6.70;99.90;;;;;;4994398;28;20130;-82
2022/12/23 03:39:41;;;;;;;146.77;39.25;;;6.90;99.90;;;;;;4952633;28;20237;-80
2022/12/23 03:42:32;;;;;;;142.25;39.25;;;6.80;99.90;;;;;;4980195;28;20602;-79
2022/12/23 03:45:03;;;;;;;156.27;42.92;;;7.00;99.90;;;;;;4997842;28;20053;-86
2022/12/23 03:47:53;;;;;;;150.18;41.03;;;7.00;99.90;;;;;;4997496;28;20224;-85
2022/12/23 03:50:22;;;;;;;143.63;40.25;;;6.90;99.90;;;;;;5008097;28;20073;-80
2022/12/23 03:52:56;;;;;;;141.27;41.05;;;6.70;99.90;;;;;;5012099;28;20540;-79
2022/12/23 03:55:30;;;;;;;127.18;33.97;;;6.80;99.90;;;;;;5026013;28;20129;-84
2022/12/23 03:58:14;;;;;;;120.80;36.88;;;7.00;99.90;;;;;;5012832;28;20506;-76
2022/12/23 04:00:46;;;;;;;142.73;40.05;;;7.00;99.90;;;;;;5014447;28;20045;-84
2022/12/23 04:03:21;;;;;;;152.77;39.90;;;6.60;99.90;;;;;;5007673;28;20447;-82
2022/12/23 04:05:56;;;;;;;163.75;39.97;;;6.60;99.90;;;;;;5032536;28;20053;-81
2022/12/23 04:08:36;;;;;;;132.40;39.45;;;6.70;99.90;;;;;;5002417;28;20041;-78
2022/12/23 04:11:03;;;;;;;177.82;39.53;;;6.80;99.90;;;;;;5036882;28;20043;-78
2022/12/23 04:13:29;;;;;;;136.70;39.20;;;6.60;99.90;;;;;;5045991;28;20046;-82
2022/12/23 04:16:00;;;;;;;151.00;38.38;;;6.60;99.90;;;;;;5057922;28;20105;-80
2022/12/23 04:18:26;;;;;;;129.63;37.05;;;6.70;99.90;;;;;;5017015;28;20076;-81
2022/12/23 04:20:52;;;;;;;123.85;36.65;;;6.60;99.90;;;;;;5020667;28;20068;-81
2022/12/23 04:23:17;;;;;;;140.55;38.33;;;6.70;99.90;;;;;;5038303;28;20047;-82
2022/12/23 04:25:43;;;;;;;145.23;37.17;;;6.80;99.90;;;;;;5033518;28;21869;-81
2022/12/23 04:28:09;;;;;;;174.57;39.90;;;6.50;99.90;;;;;;5034299;28;20547;-78
2022/12/23 04:30:34;;;;;;;135.70;38.15;;;6.50;99.90;;;;;;5018856;28;20045;-82
2022/12/23 04:33:00;;;;;;;137.98;40.10;;;6.60;99.90;;;;;;5028629;28;20037;-82
2022/12/23 04:35:26;;;;;;;143.18;37.78;;;6.60;99.90;;;;;;5031111;28;20504;-80
2022/12/23 04:37:52;;;;;;;154.32;38.65;;;6.70;99.90;;;;;;5044730;28;20073;-80
2022/12/23 04:40:18;;;;;;;157.88;39.50;;;6.70;99.90;;;;;;5037770;28;20041;-80
2022/12/23 04:42:43;;;;;;;158.45;40.08;;;6.60;99.90;;;;;;5038731;28;20057;-82
2022/12/23 04:45:09;;;;;;;138.02;38.33;;;6.60;99.90;;;;;;5025130;28;20033;-82
2022/12/23 04:47:35;;;;;;;151.02;39.67;;;6.50;99.90;;;;;;5030229;28;20133;-82
2022/12/23 04:50:01;;;;;;;143.57;39.58;;;6.80;99.90;;;;;;5043594;28;20496;-81
2022/12/23 04:52:26;;;;;;;167.88;39.45;;;6.70;99.90;;;;;;5053693;28;20085;-82
2022/12/23 04:54:52;;;;;;;144.38;38.65;;;6.60;99.90;;;;;;5041010;28;20029;-83
2022/12/23 04:57:19;;;;;;;153.35;40.13;;;6.70;99.90;;;;;;5035172;28;20038;-83
2022/12/23 04:59:45;;;;;;;156.50;40.03;;;6.50;99.90;;;;;;5035244;28;20540;-81
2022/12/23 05:02:10;;;;;;;170.27;40.97;;;6.90;99.90;;;;;;5024375;28;20041;-82
2022/12/23 05:04:36;;;;;;;157.90;41.60;;;6.70;99.90;;;;;;5039427;28;20499;-82
2022/12/23 05:07:03;;;;;;;158.48;40.03;;;6.80;99.90;;;;;;5069871;28;20068;-81
2022/12/23 05:09:28;;;;;;;143.50;38.75;;;6.70;99.90;;;;;;5016203;28;20056;-83
2022/12/23 05:11:54;;;;;;;148.40;41.15;;;6.60;99.90;;;;;;5015855;28;20117;-83
2022/12/23 05:14:20;;;;;;;155.05;38.75;;;6.60;99.90;;;;;;5042510;28;20538;-81
2022/12/23 05:16:45;;;;;;;217.45;38.30;;;6.70;99.90;;;;;;5043211;28;20034;-81
2022/12/23 05:19:11;;;;;;;123.72;35.60;;;6.70;99.90;;;;;;5036373;28;20514;-82
2022/12/23 05:21:37;;;;;;;146.45;37.13;;;6.40;99.90;;;;;;5036191;28;20041;-85
2022/12/23 05:24:04;;;;;;;151.40;37.72;;;6.60;99.90;;;;;;5036816;28;20159;-82
2022/12/23 05:26:30;;;;;;;297.67;40.22;;;6.30;99.90;;;;;;5035859;28;20394;-82
2022/12/23 05:28:55;;;;;;;136.80;37.03;;;6.60;99.90;;;;;;5034271;28;20137;-82
2022/12/23 05:31:21;;;;;;;190.45;38.80;;;6.60;99.90;;;;;;5037021;28;20077;-82
2022/12/23 05:33:46;;;;;;;176.10;39.03;;;6.20;99.90;;;;;;5034518;28;20033;-79
2022/12/23 05:36:12;;;;;;;171.18;38.97;;;6.60;99.90;;;;;;5072509;28;20086;-80
2022/12/23 05:38:38;;;;;;;147.00;36.83;;;6.40;99.90;;;;;;5037108;28;20388;-83
2022/12/23 05:41:04;;;;;;;180.88;39.33;;;6.20;99.90;;;;;;5040369;28;20444;-83
2022/12/23 05:43:30;;;;;;;202.13;39.83;;;6.30;99.90;;;;;;5037349;28;20141;-81
2022/12/23 05:45:56;;;;;;;173.15;39.30;;;6.10;99.90;;;;;;5036681;28;20116;-80
2022/12/23 05:48:21;;;;;;;145.50;37.85;;;6.40;99.90;;;;;;5054441;28;20132;-83
2022/12/23 05:50:52;;;;;;;149.02;38.55;;;6.30;99.90;;;;;;5056118;28;20041;-80
2022/12/23 05:53:19;;;;;;;179.80;37.60;;;6.30;99.90;;;;;;5037965;28;20095;-79
2022/12/23 05:55:44;;;;;;;138.13;35.97;;;6.40;99.90;;;;;;5069731;28;20136;-77
2022/12/23 05:58:10;;;;;;;232.45;38.35;;;6.60;99.90;;;;;;5057918;28;20079;-78
2022/12/23 06:00:36;;;;;;;197.00;36.15;;;6.30;99.90;;;;;;5036631;28;20405;-79
2022/12/23 06:03:02;;;;;;;151.18;36.20;;;6.30;99.90;;;;;;5027560;28;20053;-83
2022/12/23 06:05:28;;;;;;;130.00;33.95;;;6.60;99.90;;;;;;5016647;28;20081;-83
2022/12/23 06:07:53;;;;;;;118.53;33.47;;;6.50;99.90;;;;;;5060295;28;20063;-78
2022/12/23 06:10:19;;;;;;;112.78;31.02;;;6.50;99.90;;;;;;5026599;28;20068;-79
2022/12/23 06:12:45;;;;;;;141.35;32.10;;;6.50;99.90;;;;;;5020160;28;20037;-80
2022/12/23 06:15:11;;;;;;;108.10;30.10;;;6.20;99.90;;;;;;5018532;28;20041;-83
2022/12/23 06:17:37;;;;;;;106.38;30.45;;;6.30;99.90;;;;;;5021142;28;20033;-79
2022/12/23 06:20:03;;;;;;;104.97;28.77;;;6.10;99.90;;;;;;5019751;28;20055;-83
2022/12/23 06:22:30;;;;;;;106.93;28.75;;;5.90;99.90;;;;;;5040907;28;20045;-80
2022/12/23 06:24:55;;;;;;;90.13;25.52;;;6.00;99.90;;;;;;5023856;28;20210;-82
2022/12/23 06:27:21;;;;;;;138.98;27.52;;;6.10;99.90;;;;;;5037103;28;20476;-80
2022/12/23 06:29:47;;;;;;;90.35;26.92;;;5.70;99.90;;;;;;5022685;28;20041;-80
2022/12/23 06:32:13;;;;;;;120.68;29.45;;;6.00;99.90;;;;;;5028534;28;20446;-83
2022/12/23 06:34:38;;;;;;;100.85;28.08;;;6.00;99.90;;;;;;5035300;28;20041;-81
2022/12/23 06:37:04;;;;;;;193.82;32.17;;;6.00;99.90;;;;;;5033406;28;20029;-86
2022/12/23 06:39:30;;;;;;;251.48;32.97;;;5.70;99.90;;;;;;5040589;28;20132;-80
2022/12/23 06:41:55;;;;;;;129.00;30.58;;;6.20;99.90;;;;;;5033216;28;20048;-82
2022/12/23 06:44:21;;;;;;;173.57;30.75;;;6.10;99.90;;;;;;5016103;28;20041;-80
2022/12/23 06:46:47;;;;;;;190.57;31.63;;;6.10;99.90;;;;;;5034109;28;20040;-79
2022/12/23 06:49:12;;;;;;;111.22;28.52;;;6.20;99.90;;;;;;5047195;28;20148;-81
2022/12/23 06:51:38;;;;;;;185.82;31.02;;;6.00;99.90;;;;;;5033758;28;20037;-82
2022/12/23 06:54:04;;;;;;;107.20;28.98;;;6.20;99.90;;;;;;5038179;28;20037;-79
2022/12/23 06:56:29;;;;;;;118.45;29.73;;;5.90;99.90;;;;;;5018778;28;20037;-80
2022/12/23 06:58:55;;;;;;;144.07;30.40;;;6.30;99.90;;;;;;5036633;28;20052;-83
2022/12/23 07:01:21;;;;;;;148.57;30.42;;;6.00;99.90;;;;;;5034507;28;20132;-78
2022/12/23 07:03:48;;;;;;;141.20;30.02;;;6.40;99.90;;;;;;5033374;28;20073;-83
2022/12/23 07:06:14;;;;;;;167.38;31.63;;;6.00;99.90;;;;;;5048593;28;20033;-80
2022/12/23 07:08:40;;;;;;;144.52;28.50;;;6.00;99.90;;;;;;5036218;28;20033;-83
2022/12/23 07:11:05;;;;;;;133.25;29.58;;;6.40;99.90;;;;;;5031391;28;21726;-79
2022/12/23 07:13:34;;;;;;;142.05;30.48;;;6.10;99.90;;;;;;5037323;28;20040;-80
2022/12/23 07:16:05;;;;;;;160.55;31.73;;;6.40;99.90;;;;;;5037220;28;20053;-79
2022/12/23 07:18:31;;;;;;;119.50;29.60;;;6.00;99.90;;;;;;5069540;28;20144;-79
2022/12/23 07:20:59;;;;;;;166.80;31.45;;;6.30;99.90;;;;;;5017412;28;20117;-79
2022/12/23 07:23:24;;;;;;;155.05;30.58;;;6.00;99.90;;;;;;5052814;28;20040;-80
2022/12/23 07:25:50;;;;;;;154.50;29.73;;;6.30;99.90;;;;;;5039198;28;20061;-82
2022/12/23 07:28:16;;;;;;;135.18;30.30;;;6.30;99.90;;;;;;5042008;28;20060;-79
2022/12/23 07:30:42;;;;;;;185.70;30.38;;;6.20;99.90;;;;;;5015639;28;20045;-78
2022/12/23 07:33:07;;;;;;;168.55;29.60;;;6.40;99.90;;;;;;5053141;28;20033;-79
2022/12/23 07:35:33;;;;;;;124.05;28.38;;;6.20;99.90;;;;;;5040365;28;20522;-80
2022/12/23 07:37:59;;;;;;;138.07;28.48;;;6.20;99.90;;;;;;5074350;28;20050;-81
2022/12/23 07:40:25;;;;;;;179.52;31.27;;;6.20;99.90;;;;;;5013738;28;20052;-81
2022/12/23 07:42:56;;;;;;;173.02;29.63;;;6.00;99.90;;;;;;5028394;28;20067;-79
2022/12/23 07:45:23;;;;;;;167.32;32.45;;;6.20;99.90;;;;;;5028685;28;20098;-78
2022/12/23 07:47:53;;;;;;;122.00;30.80;;;6.20;99.90;;;;;;5050439;28;20068;-78
2022/12/23 07:50:19;;;;;;;131.57;31.92;;;6.40;99.90;;;;;;5061249;28;20187;-80
2022/12/23 07:52:45;;;;;;;114.55;29.42;;;6.30;99.90;;;;;;5044705;28;20030;-80
2022/12/23 07:55:10;;;;;;;125.93;29.98;;;6.30;99.90;;;;;;5036160;28;20149;-79
2022/12/23 07:57:37;;;;;;;112.75;30.35;;;6.10;99.90;;;;;;5023426;28;20044;-77
2022/12/23 08:00:05;;;;;;;110.68;29.25;;;6.00;99.90;;;;;;5022407;28;20060;-80
2022/12/23 08:02:31;;;;;;;110.78;28.58;;;6.40;99.90;;;;;;5047345;28;20060;-81
2022/12/23 08:04:57;;;;;;;106.28;30.17;;;6.20;99.90;;;;;;5036532;28;20048;-84
2022/12/23 08:07:22;;;;;;;99.97;28.40;;;6.20;99.90;;;;;;5021884;28;20090;-80
2022/12/23 08:09:48;;;;;;;128.65;29.60;;;6.30;99.90;;;;;;5016713;28;20037;-79
2022/12/23 08:12:15;;;;;;;128.18;29.98;;;6.40;99.90;;;;;;5036926;28;20044;-83
2022/12/23 08:14:41;;;;;;;110.40;28.10;;;6.20;99.90;;;;;;5049634;28;20041;-84
2022/12/23 08:17:06;;;;;;;105.25;27.90;;;6.40;99.90;;;;;;5049826;28;20064;-78
2022/12/23 08:19:33;;;;;;;117.15;28.38;;;6.10;99.90;;;;;;5050881;28;20076;-83
2022/12/23 08:21:59;;;;;;;91.60;27.30;;;6.40;99.90;;;;;;5042056;28;20096;-79
2022/12/23 08:24:25;;;;;;;91.20;27.50;;;6.10;99.90;;;;;;5026191;28;20051;-83
2022/12/23 08:26:50;;;;;;;98.60;26.42;;;6.20;99.90;;;;;;5015737;28;20202;-81
2022/12/23 08:29:16;;;;;;;90.10;26.40;;;6.20;99.90;;;;;;5033889;28;20369;-80
2022/12/23 08:31:42;;;;;;;128.60;27.60;;;6.50;99.90;;;;;;5036938;28;20138;-84
2022/12/23 08:34:07;;;;;;;94.40;27.05;;;6.40;99.90;;;;;;5029102;28;20045;-82
2022/12/23 08:36:34;;;;;;;102.60;26.75;;;6.30;99.90;;;;;;5038007;28;20151;-83
2022/12/23 08:39:03;;;;;;;90.28;26.58;;;6.00;99.90;;;;;;5015892;28;20443;-78
2022/12/23 08:41:32;;;;;;;93.55;25.58;;;6.30;99.90;;;;;;5069789;28;20049;-78
2022/12/23 08:43:58;;;;;;;93.65;26.83;;;6.00;99.90;;;;;;5039343;28;20049;-82
2022/12/23 08:46:24;;;;;;;87.07;26.23;;;6.10;99.90;;;;;;5045656;28;20037;-82
2022/12/23 08:48:50;;;;;;;87.97;26.15;;;6.10;99.90;;;;;;5015107;28;20043;-79
2022/12/23 08:51:18;;;;;;;102.75;28.05;;;6.20;99.90;;;;;;5035404;28;20338;-81
2022/12/23 08:53:44;;;;;;;100.82;27.98;;;6.40;99.90;;;;;;5042873;28;20044;-79
2022/12/23 08:56:20;;;;;;;95.82;28.25;;;6.30;99.90;;;;;;5037379;28;20230;-78
2022/12/23 08:58:49;;;;;;;97.25;28.30;;;6.60;99.90;;;;;;5047699;28;20532;-82
2022/12/23 09:01:16;;;;;;;107.47;28.17;;;6.60;99.90;;;;;;5038257;28;20037;-81
2022/12/23 09:03:43;;;;;;;85.43;27.15;;;6.20;99.90;;;;;;5035965;28;20112;-83
2022/12/23 09:06:12;;;;;;;93.93;26.90;;;6.50;99.90;;;;;;5027253;28;20037;-84
2022/12/23 09:08:38;;;;;;;87.50;25.35;;;6.60;99.90;;;;;;5050395;28;20040;-80
2022/12/23 09:11:04;;;;;;;83.78;24.73;;;6.70;99.90;;;;;;5046077;28;20064;-81
2022/12/23 09:13:30;;;;;;;78.80;24.13;;;6.60;99.90;;;;;;5020190;28;20037;-80
2022/12/23 09:15:58;;;;;;;77.30;23.60;;;6.40;99.90;;;;;;5077501;28;20095;-82
2022/12/23 09:18:24;;;;;;;81.80;21.55;;;6.50;99.90;;;;;;5044241;28;20045;-80
2022/12/23 09:21:00;;;;;;;55.58;20.17;;;6.50;99.90;;;;;;5049288;28;20064;-84
2022/12/23 09:23:26;;;;;;;53.05;19.90;;;6.30;99.90;;;;;;5033539;28;20128;-80
2022/12/23 09:26:20;;;;;;;53.30;20.30;;;6.50;99.90;;;;;;5035853;28;20045;-81
2022/12/23 09:28:46;;;;;;;83.32;22.13;;;6.30;99.90;;;;;;5041497;28;20085;-79
2022/12/23 09:31:12;;;;;;;232.70;26.90;;;6.40;99.90;;;;;;5038099;28;20060;-82
2022/12/23 09:33:39;;;;;;;149.55;25.52;;;6.60;99.90;;;;;;5032486;28;20037;-86
2022/12/23 09:36:05;;;;;;;84.82;24.55;;;6.70;99.90;;;;;;5049651;28;20439;-83
2022/12/23 09:38:31;;;;;;;143.77;27.15;;;6.30;99.90;;;;;;5036920;28;20049;-80
2022/12/23 09:41:24;;;;;;;178.75;26.05;;;6.30;99.90;;;;;;5043623;28;20133;-82
2022/12/23 09:44:11;;;;;;;298.13;28.38;;;6.30;99.90;;;;;;5064293;28;20140;-81
2022/12/23 09:46:50;;;;;;;319.13;30.52;;;6.40;99.90;;;;;;5051481;28;20186;-84
2022/12/23 09:49:17;;;;;;;169.65;25.58;;;6.70;99.90;;;;;;5050469;28;20045;-83
2022/12/23 09:51:45;;;;;;;177.63;26.02;;;6.50;99.90;;;;;;5035117;28;20068;-79
2022/12/23 09:54:22;;;;;;;243.73;28.33;;;6.80;99.90;;;;;;5031569;28;20061;-82
2022/12/23 09:57:25;;;;;;;194.88;23.70;;;6.60;99.90;;;;;;5043778;28;20065;-82
2022/12/23 09:59:59;;;;;;;139.98;24.27;;;6.70;99.90;;;;;;5043827;28;20123;-84
2022/12/23 10:02:43;;;;;;;308.40;26.15;;;7.10;99.90;;;;;;5025200;28;20045;-80
2022/12/23 10:05:31;;;;;;;131.48;21.80;;;7.00;99.90;;;;;;5032305;28;20049;-81
2022/12/23 10:08:17;;;;;;;85.85;20.60;;;6.80;99.90;;;;;;5034024;28;20079;-83
2022/12/23 10:11:03;;;;;;;105.38;20.42;;;6.70;99.90;;;;;;5044979;28;20037;-82
2022/12/23 10:13:52;;;;;;;182.27;24.55;;;6.80;99.90;;;;;;5039146;28;20045;-80
2022/12/23 10:16:25;;;;;;;106.40;22.90;;;6.80;99.90;;;;;;5033408;28;20053;-82
2022/12/23 10:19:11;;;;;;;72.05;20.70;;;6.90;99.90;;;;;;5044804;28;20106;-80
2022/12/23 10:22:05;;;;;;;143.50;21.00;;;7.20;99.90;;;;;;5027820;28;20061;-80
2022/12/23 10:24:43;;;;;;;102.28;20.55;;;7.20;99.90;;;;;;5021445;28;20059;-80
2022/12/23 10:27:35;;;;;;;117.57;20.02;;;6.70;99.90;;;;;;5020423;28;20057;-84
2022/12/23 10:30:22;;;;;;;111.65;19.92;;;6.70;99.90;;;;;;5043971;28;20048;-82
2022/12/23 10:33:12;;;;;;;126.68;21.25;;;6.70;99.90;;;;;;5023967;28;20037;-79
2022/12/23 10:36:07;;;;;;;218.93;23.33;;;7.10;99.90;;;;;;5058134;28;20041;-83
2022/12/23 10:38:32;;;;;;;248.88;24.10;;;6.80;99.90;;;;;;5026282;28;20042;-82
2022/12/23 10:44:47;;;;;;;75.35;20.15;;;7.10;99.90;;;;;;5003335;28;20060;-80
2022/12/23 10:47:41;;;;;;;115.68;21.70;;;7.10;99.90;;;;;;5009298;28;20050;-81
2022/12/23 10:50:34;;;;;;;54.45;19.70;;;6.90;99.90;;;;;;4969607;28;20350;-78
2022/12/23 10:53:06;;;;;;;77.00;19.40;;;6.80;99.90;;;;;;4983849;28;20042;-82
2022/12/23 10:55:37;;;;;;;63.63;19.23;;;6.90;99.90;;;;;;4986016;28;20782;-77
2022/12/23 10:58:15;;;;;;;51.95;18.88;;;6.90;99.90;;;;;;4995091;28;20069;-80
2022/12/23 11:00:52;;;;;;;67.57;21.85;;;6.90;99.90;;;;;;4950999;28;20072;-84
2022/12/23 11:03:34;;;;;;;55.90;18.25;;;7.30;99.90;;;;;;5014970;28;20054;-83
2022/12/23 11:06:01;;;;;;;78.60;19.63;;;7.20;99.90;;;;;;4964539;28;22059;-81
2022/12/23 11:08:29;;;;;;;74.55;18.17;;;7.00;99.90;;;;;;4991017;28;20046;-80
2022/12/23 11:10:55;;;;;;;37.15;16.13;;;7.20;99.90;;;;;;4998092;28;20137;-82
2022/12/23 11:13:53;;;;;;;;;;;;;;;;;;;;;
2022/12/23 11:19:44;;;;;;;66.00;20.35;;;7.20;99.90;;;;;;5026101;28;20116;-77
2022/12/23 11:22:23;;;;;;;82.57;22.45;;;7.00;99.90;;;;;;5007798;28;20136;-83
2022/12/23 11:24:54;;;;;;;64.43;21.83;;;7.30;99.90;;;;;;5016133;28;20152;-83
2022/12/23 11:27:20;;;;;;;85.65;25.25;;;7.00;99.90;;;;;;5020021;28;20131;-83
2022/12/23 11:29:50;;;;;;;59.08;21.15;;;6.80;99.90;;;;;;5014232;28;20151;-80
2022/12/23 11:32:27;;;;;;;112.10;23.98;;;7.30;99.90;;;;;;5020933;28;20107;-81
2022/12/23 11:34:54;;;;;;;86.20;21.10;;;6.80;99.90;;;;;;5017779;28;20037;-80
2022/12/23 11:37:39;;;;;;;117.72;22.50;;;6.80;99.90;;;;;;5041630;28;20099;-82
2022/12/23 11:40:13;;;;;;;61.50;21.13;;;6.90;99.90;;;;;;5008047;28;20084;-79
2022/12/23 11:42:40;;;;;;;95.22;21.33;;;7.10;99.90;;;;;;5025287;28;20049;-80
2022/12/23 11:45:07;;;;;;;54.22;19.90;;;6.80;99.90;;;;;;5005349;28;20065;-82
2022/12/23 11:47:40;;;;;;;42.63;17.75;;;6.90;99.90;;;;;;5020710;28;20170;-83
2022/12/23 11:50:28;;;;;;;39.70;16.95;;;7.10;99.90;;;;;;5020074;28;20068;-82
2022/12/23 11:53:23;;;;;;;36.33;15.90;;;7.30;99.90;;;;;;5038473;28;20362;-82
2022/12/23 11:56:04;;;;;;;39.30;17.35;;;6.90;99.90;;;;;;5006347;28;20132;-81
2022/12/23 11:58:39;;;;;;;42.22;17.67;;;6.80;99.90;;;;;;5032102;28;20075;-80
2022/12/23 12:01:15;;;;;;;41.75;17.40;;;6.80;99.90;;;;;;5037579;28;20064;-80
2022/12/23 12:03:52;;;;;;;44.28;18.45;;;7.00;99.90;;;;;;5042625;28;20236;-81
2022/12/23 12:06:19;;;;;;;45.25;18.75;;;6.80;99.90;;;;;;5039196;28;20041;-81
2022/12/23 12:08:51;;;;;;;41.53;18.00;;;6.90;99.90;;;;;;5046325;28;20424;-81
2022/12/23 12:11:38;;;;;;;53.63;19.92;;;6.90;99.90;;;;;;5037088;28;20037;-82
2022/12/23 12:14:06;;;;;;;61.83;21.10;;;7.20;99.90;;;;;;5034010;28;20046;-85
2022/12/23 12:16:52;;;;;;;44.38;19.45;;;7.20;99.90;;;;;;5033168;28;20061;-85
2022/12/23 12:19:45;;;;;;;54.22;20.50;;;7.20;99.90;;;;;;5037758;28;20109;-80
2022/12/23 12:22:30;;;;;;;55.05;21.02;;;7.00;99.90;;;;;;5060388;28;20030;-81
2022/12/23 12:24:58;;;;;;;50.63;19.38;;;7.20;99.90;;;;;;5053259;28;20040;-80
2022/12/23 12:27:34;;;;;;;52.78;19.92;;;7.20;99.90;;;;;;5042907;28;20036;-80
2022/12/23 12:30:03;;;;;;;50.05;19.92;;;7.20;99.90;;;;;;5042424;28;20052;-78
2022/12/23 12:32:59;;;;;;;49.40;19.75;;;7.20;99.90;;;;;;5027552;28;20120;-83
2022/12/23 12:35:48;;;;;;;42.22;18.60;;;7.30;99.90;;;;;;5043844;28;20128;-80
2022/12/23 12:38:34;;;;;;;47.30;18.85;;;7.10;99.90;;;;;;5043475;28;20159;-79
2022/12/23 12:41:34;;;;;;;42.25;18.75;;;7.20;99.90;;;;;;5061360;28;20071;-83
2022/12/23 12:44:39;;;;;;;48.58;18.42;;;7.10;99.90;;;;;;5082354;28;20121;-79
2022/12/23 12:47:22;;;;;;;45.95;17.20;;;7.00;99.90;;;;;;5025764;28;20068;-79
2022/12/23 12:50:10;;;;;;;45.92;17.77;;;7.40;99.90;;;;;;5028005;28;20041;-80
2022/12/23 12:52:40;;;;;;;42.58;16.70;;;7.10;99.90;;;;;;5049927;28;20040;-83
2022/12/23 12:55:37;;;;;;;42.63;17.58;;;7.10;99.90;;;;;;5041981;28;20045;-81
2022/12/23 12:58:03;;;;;;;43.50;17.77;;;7.10;99.90;;;;;;5064851;28;20758;-79
2022/12/23 13:00:40;;;;;;;42.65;17.40;;;7.00;99.90;;;;;;5042384;28;20045;-83
2022/12/23 13:03:15;;;;;;;40.92;17.52;;;7.40;99.90;;;;;;5027772;28;20045;-82
2022/12/23 13:06:08;;;;;;;45.88;18.83;;;7.20;99.90;;;;;;5042572;28;20183;-82
2022/12/23 13:08:38;;;;;;;39.50;17.80;;;7.30;99.90;;;;;;5037128;28;20041;-82
2022/12/23 13:11:24;;;;;;;46.42;18.15;;;7.10;99.90;;;;;;5059104;28;20090;-82
2022/12/23 13:14:06;;;;;;;47.22;18.90;;;7.40;99.90;;;;;;5067675;28;20037;-82
2022/12/23 13:16:56;;;;;;;47.75;19.70;;;7.30;99.90;;;;;;5048670;28;20038;-81
2022/12/23 13:19:44;;;;;;;51.15;19.77;;;7.00;99.90;;;;;;5019968;28;21021;-83
2022/12/23 13:22:20;;;;;;;47.85;18.77;;;7.40;99.90;;;;;;5065835;28;20029;-82
2022/12/23 13:25:07;;;;;;;52.20;19.67;;;7.00;99.90;;;;;;5016701;28;20084;-83
2022/12/23 13:27:53;;;;;;;50.67;20.15;;;7.20;99.90;;;;;;5021491;28;20081;-79
2022/12/23 13:30:22;;;;;;;55.17;23.00;;;7.30;99.90;;;;;;5041287;28;20477;-82
2022/12/23 13:33:27;;;;;;;54.53;22.33;;;7.10;99.90;;;;;;5045890;28;20037;-80
2022/12/23 13:36:12;;;;;;;59.88;24.55;;;7.10;99.90;;;;;;5028563;28;20071;-82